sensor_id;sensor_type;location;lat;lon;timestamp;pressure;altitude;pressure_sealevel;temperature;humidity
71043;BME280;58696;52.134;5.500;2023-02-25T00:01:37;100937.63;;;3.59;87.12
71043;BME280;58696;52.134;5.500;2023-02-25T00:04:04;100938.41;;;3.60;86.99
71043;BME280;58696;52.134;5.500;2023-02-25T00:06:36;100929.31;;;3.67;87.16
71043;BME280;58696;52.134;5.500;2023-02-25T00:09:05;100929.84;;;3.71;86.84
71043;BME280;58696;52.134;5.500;2023-02-25T00:11:35;100928.63;;;3.75;86.72
71043;BME280;58696;52.134;5.500;2023-02-25T00:14:02;100926.38;;;3.81;86.64
71043;BME280;58696;52.134;5.500;2023-02-25T00:16:29;100926.88;;;3.85;86.20
71043;BME280;58696;52.134;5.500;2023-02-25T00:19:00;100930.50;;;3.92;86.06
71043;BME280;58696;52.134;5.500;2023-02-25T00:21:31;100932.50;;;3.98;85.85
71043;BME280;58696;52.134;5.500;2023-02-25T00:23:57;100924.47;;;4.03;85.33
71043;BME280;58696;52.134;5.500;2023-02-25T00:26:40;100932.59;;;4.06;85.11
71043;BME280;58696;52.134;5.500;2023-02-25T00:29:08;100934.88;;;4.09;84.42
71043;BME280;58696;52.134;5.500;2023-02-25T00:31:36;100931.53;;;4.09;83.78
71043;BME280;58696;52.134;5.500;2023-02-25T00:34:04;100939.28;;;4.07;83.92
71043;BME280;58696;52.134;5.500;2023-02-25T00:36:33;100933.53;;;4.05;83.60
71043;BME280;58696;52.134;5.500;2023-02-25T00:39:02;100945.31;;;4.06;83.40
71043;BME280;58696;52.134;5.500;2023-02-25T00:41:28;100947.19;;;4.04;83.71
71043;BME280;58696;52.134;5.500;2023-02-25T00:44:02;100951.50;;;4.04;83.35
71043;BME280;58696;52.134;5.500;2023-02-25T00:46:32;100944.91;;;4.01;83.43
71043;BME280;58696;52.134;5.500;2023-02-25T00:49:03;100957.53;;;4.03;83.79
71043;BME280;58696;52.134;5.500;2023-02-25T00:51:35;100976.13;;;4.03;83.61
71043;BME280;58696;52.134;5.500;2023-02-25T00:54:05;100961.78;;;4.02;84.32
71043;BME280;58696;52.134;5.500;2023-02-25T00:56:37;100960.88;;;3.93;85.16
71043;BME280;58696;52.134;5.500;2023-02-25T00:59:06;100970.22;;;3.83;85.67
71043;BME280;58696;52.134;5.500;2023-02-25T01:01:33;100959.00;;;3.76;86.30
71043;BME280;58696;52.134;5.500;2023-02-25T01:04:00;100964.34;;;3.73;86.57
71043;BME280;58696;52.134;5.500;2023-02-25T01:06:28;100973.06;;;3.71;86.83
71043;BME280;58696;52.134;5.500;2023-02-25T01:08:57;100971.44;;;3.69;87.37
71043;BME280;58696;52.134;5.500;2023-02-25T01:11:29;100973.44;;;3.66;87.38
71043;BME280;58696;52.134;5.500;2023-02-25T01:14:03;100960.75;;;3.66;87.34
71043;BME280;58696;52.134;5.500;2023-02-25T01:16:33;100969.03;;;3.68;87.51
71043;BME280;58696;52.134;5.500;2023-02-25T01:19:03;100973.72;;;3.73;87.22
71043;BME280;58696;52.134;5.500;2023-02-25T01:21:33;100971.97;;;3.73;87.12
71043;BME280;58696;52.134;5.500;2023-02-25T01:24:11;100973.56;;;3.74;87.34
71043;BME280;58696;52.134;5.500;2023-02-25T01:26:44;100968.38;;;3.76;87.47
71043;BME280;58696;52.134;5.500;2023-02-25T01:29:15;100969.03;;;3.78;87.46
71043;BME280;58696;52.134;5.500;2023-02-25T01:31:49;100962.88;;;3.80;87.55
71043;BME280;58696;52.134;5.500;2023-02-25T01:34:20;100967.03;;;3.81;87.22
71043;BME280;58696;52.134;5.500;2023-02-25T01:36:54;100962.75;;;3.82;87.40
71043;BME280;58696;52.134;5.500;2023-02-25T01:39:25;100961.94;;;3.81;87.33
71043;BME280;58696;52.134;5.500;2023-02-25T01:41:54;100970.63;;;3.79;87.35
71043;BME280;58696;52.134;5.500;2023-02-25T01:44:29;100960.59;;;3.77;87.38
71043;BME280;58696;52.134;5.500;2023-02-25T01:46:59;100966.63;;;3.76;87.37
71043;BME280;58696;52.134;5.500;2023-02-25T01:49:43;100959.00;;;3.76;87.84
71043;BME280;58696;52.134;5.500;2023-02-25T01:52:18;100964.19;;;3.75;87.58
71043;BME280;58696;52.134;5.500;2023-02-25T01:54:51;100960.88;;;3.74;87.84
71043;BME280;58696;52.134;5.500;2023-02-25T01:57:20;100958.31;;;3.74;87.78
71043;BME280;58696;52.134;5.500;2023-02-25T01:59:50;100954.97;;;3.74;87.74
71043;BME280;58696;52.134;5.500;2023-02-25T02:02:24;100961.00;;;3.73;87.71
71043;BME280;58696;52.134;5.500;2023-02-25T02:04:53;100963.69;;;3.71;87.59
71043;BME280;58696;52.134;5.500;2023-02-25T02:07:25;100968.09;;;3.69;87.52
71043;BME280;58696;52.134;5.500;2023-02-25T02:09:54;100962.47;;;3.65;87.61
71043;BME280;58696;52.134;5.500;2023-02-25T02:12:30;100961.81;;;3.63;87.64
71043;BME280;58696;52.134;5.500;2023-02-25T02:15:05;100961.13;;;3.61;87.42
71043;BME280;58696;52.134;5.500;2023-02-25T02:18:02;100962.09;;;3.60;87.33
71043;BME280;58696;52.134;5.500;2023-02-25T02:21:05;100965.28;;;3.62;87.42
71043;BME280;58696;52.134;5.500;2023-02-25T02:29:19;100952.31;;;3.65;87.67
71043;BME280;58696;52.134;5.500;2023-02-25T02:32:12;100958.72;;;3.69;87.54
71043;BME280;58696;52.134;5.500;2023-02-25T02:49:10;100955.09;;;3.53;87.95
71043;BME280;58696;52.134;5.500;2023-02-25T02:51:24;100962.63;;;3.54;88.30
71043;BME280;58696;52.134;5.500;2023-02-25T02:53:55;100951.75;;;3.52;88.11
71043;BME280;58696;52.134;5.500;2023-02-25T02:56:26;100966.75;;;3.55;88.08
71043;BME280;58696;52.134;5.500;2023-02-25T02:59:01;100962.47;;;3.56;88.21
71043;BME280;58696;52.134;5.500;2023-02-25T03:01:37;100965.81;;;3.56;88.34
71043;BME280;58696;52.134;5.500;2023-02-25T03:04:13;100966.63;;;3.57;88.28
71043;BME280;58696;52.134;5.500;2023-02-25T03:06:44;100970.91;;;3.56;88.48
71043;BME280;58696;52.134;5.500;2023-02-25T03:09:17;100970.09;;;3.56;88.44
71043;BME280;58696;52.134;5.500;2023-02-25T03:11:47;100967.69;;;3.54;88.32
71043;BME280;58696;52.134;5.500;2023-02-25T03:14:14;100964.34;;;3.54;88.15
71043;BME280;58696;52.134;5.500;2023-02-25T03:16:55;100967.69;;;3.54;88.09
71043;BME280;58696;52.134;5.500;2023-02-25T03:19:31;100970.91;;;3.56;87.99
71043;BME280;58696;52.134;5.500;2023-02-25T03:22:03;100978.28;;;3.59;87.92
71043;BME280;58696;52.134;5.500;2023-02-25T03:24:36;100975.44;;;3.62;87.80
71043;BME280;58696;52.134;5.500;2023-02-25T03:29:49;100980.69;;;3.71;87.58
71043;BME280;58696;52.134;5.500;2023-02-25T03:32:18;100967.56;;;3.75;87.45
71043;BME280;58696;52.134;5.500;2023-02-25T03:34:49;100978.53;;;3.76;87.52
71043;BME280;58696;52.134;5.500;2023-02-25T03:37:27;100961.56;;;3.76;87.46
71043;BME280;58696;52.134;5.500;2023-02-25T03:39:58;100963.94;;;3.78;87.35
71043;BME280;58696;52.134;5.500;2023-02-25T03:42:33;100974.78;;;3.80;87.26
71043;BME280;58696;52.134;5.500;2023-02-25T03:45:02;100975.31;;;3.83;86.78
71043;BME280;58696;52.134;5.500;2023-02-25T03:47:36;100981.84;;;3.86;86.60
71043;BME280;58696;52.134;5.500;2023-02-25T03:50:28;100983.34;;;3.88;86.64
71043;BME280;58696;52.134;5.500;2023-02-25T03:52:55;100985.88;;;3.88;86.56
71043;BME280;58696;52.134;5.500;2023-02-25T03:55:26;100990.72;;;3.91;86.29
71043;BME280;58696;52.134;5.500;2023-02-25T03:57:57;100993.13;;;3.93;86.08
71043;BME280;58696;52.134;5.500;2023-02-25T04:00:29;100985.34;;;3.94;85.60
71043;BME280;58696;52.134;5.500;2023-02-25T04:02:58;100985.19;;;3.96;85.49
71043;BME280;58696;52.134;5.500;2023-02-25T04:05:30;100999.94;;;3.92;85.68
71043;BME280;58696;52.134;5.500;2023-02-25T04:07:58;101003.81;;;3.87;85.47
71043;BME280;58696;52.134;5.500;2023-02-25T04:10:25;100992.84;;;3.77;85.22
71043;BME280;58696;52.134;5.500;2023-02-25T04:12:52;101001.94;;;3.69;85.09
71043;BME280;58696;52.134;5.500;2023-02-25T04:15:21;100996.56;;;3.63;84.96
71043;BME280;58696;52.134;5.500;2023-02-25T04:17:54;101004.47;;;3.60;84.75
71043;BME280;58696;52.134;5.500;2023-02-25T04:20:20;101009.41;;;3.52;84.57
71043;BME280;58696;52.134;5.500;2023-02-25T04:22:47;101009.69;;;3.49;84.39
71043;BME280;58696;52.134;5.500;2023-02-25T04:25:17;101010.31;;;3.41;84.40
71043;BME280;58696;52.134;5.500;2023-02-25T04:27:43;101010.03;;;3.34;84.64
71043;BME280;58696;52.134;5.500;2023-02-25T04:30:10;101014.72;;;3.29;84.55
71043;BME280;58696;52.134;5.500;2023-02-25T04:32:37;101004.81;;;3.26;84.44
71043;BME280;58696;52.134;5.500;2023-02-25T04:35:04;101018.19;;;3.28;84.20
71043;BME280;58696;52.134;5.500;2023-02-25T04:37:32;101020.19;;;3.25;84.24
71043;BME280;58696;52.134;5.500;2023-02-25T04:39:59;101016.84;;;3.24;84.22
71043;BME280;58696;52.134;5.500;2023-02-25T04:42:26;101019.13;;;3.27;84.02
71043;BME280;58696;52.134;5.500;2023-02-25T04:44:53;101017.25;;;3.29;83.97
71043;BME280;58696;52.134;5.500;2023-02-25T04:47:20;101019.28;;;3.35;83.81
71043;BME280;58696;52.134;5.500;2023-02-25T04:49:51;101027.59;;;3.37;83.66
71043;BME280;58696;52.134;5.500;2023-02-25T04:52:17;101024.91;;;3.39;83.43
71043;BME280;58696;52.134;5.500;2023-02-25T04:54:44;101026.75;;;3.37;83.23
71043;BME280;58696;52.134;5.500;2023-02-25T04:57:13;101029.19;;;3.38;83.24
71043;BME280;58696;52.134;5.500;2023-02-25T04:59:43;101024.09;;;3.38;83.05
71043;BME280;58696;52.134;5.500;2023-02-25T05:02:10;101021.28;;;3.41;83.18
71043;BME280;58696;52.134;5.500;2023-02-25T05:04:41;101018.75;;;3.41;83.37
71043;BME280;58696;52.134;5.500;2023-02-25T05:07:10;101021.69;;;3.47;83.37
71043;BME280;58696;52.134;5.500;2023-02-25T05:09:39;101020.75;;;3.48;83.29
71043;BME280;58696;52.134;5.500;2023-02-25T05:12:14;101028.00;;;3.52;83.36
71043;BME280;58696;52.134;5.500;2023-02-25T05:14:42;101036.97;;;3.56;83.43
71043;BME280;58696;52.134;5.500;2023-02-25T05:17:09;101041.66;;;3.61;82.86
71043;BME280;58696;52.134;5.500;2023-02-25T05:19:37;101023.88;;;3.61;83.31
71043;BME280;58696;52.134;5.500;2023-02-25T05:22:06;101029.88;;;3.60;83.88
71043;BME280;58696;52.134;5.500;2023-02-25T05:24:34;101034.41;;;3.56;84.42
71043;BME280;58696;52.134;5.500;2023-02-25T05:27:03;101047.78;;;3.49;85.30
71043;BME280;58696;52.134;5.500;2023-02-25T05:29:30;101041.19;;;3.36;85.84
71043;BME280;58696;52.134;5.500;2023-02-25T05:31:58;101037.44;;;3.31;86.01
71043;BME280;58696;52.134;5.500;2023-02-25T05:34:27;101039.59;;;3.35;85.78
71043;BME280;58696;52.134;5.500;2023-02-25T05:36:54;101037.59;;;3.39;86.07
71043;BME280;58696;52.134;5.500;2023-02-25T05:39:23;101038.97;;;3.43;86.22
71043;BME280;58696;52.134;5.500;2023-02-25T05:41:49;101037.31;;;3.42;86.22
71043;BME280;58696;52.134;5.500;2023-02-25T05:44:17;101040.69;;;3.42;86.41
71043;BME280;58696;52.134;5.500;2023-02-25T05:46:49;101034.00;;;3.51;86.04
71043;BME280;58696;52.134;5.500;2023-02-25T05:49:20;101034.66;;;3.53;86.40
71043;BME280;58696;52.134;5.500;2023-02-25T05:51:48;101041.25;;;3.56;86.15
71043;BME280;58696;52.134;5.500;2023-02-25T05:54:17;101022.78;;;3.63;85.76
71043;BME280;58696;52.134;5.500;2023-02-25T05:56:50;101029.09;;;3.69;85.46
71043;BME280;58696;52.134;5.500;2023-02-25T05:59:17;101032.16;;;3.73;85.11
71043;BME280;58696;52.134;5.500;2023-02-25T06:01:44;101028.28;;;3.78;84.70
71043;BME280;58696;52.134;5.500;2023-02-25T06:04:10;101031.38;;;3.82;84.47
71043;BME280;58696;52.134;5.500;2023-02-25T06:06:39;101034.72;;;3.82;83.94
71043;BME280;58696;52.134;5.500;2023-02-25T06:09:08;101042.22;;;3.84;83.95
71043;BME280;58696;52.134;5.500;2023-02-25T06:11:39;101048.25;;;3.83;84.25
71043;BME280;58696;52.134;5.500;2023-02-25T06:14:06;101037.94;;;3.84;83.93
71043;BME280;58696;52.134;5.500;2023-02-25T06:16:33;101038.22;;;3.81;83.89
71043;BME280;58696;52.134;5.500;2023-02-25T06:19:02;101043.53;;;3.78;83.94
71043;BME280;58696;52.134;5.500;2023-02-25T06:21:31;101025.22;;;3.75;83.68
71043;BME280;58696;52.134;5.500;2023-02-25T06:24:00;101049.81;;;3.74;83.82
71043;BME280;58696;52.134;5.500;2023-02-25T06:26:27;101055.72;;;3.75;83.77
71043;BME280;58696;52.134;5.500;2023-02-25T06:28:54;101074.34;;;3.75;83.89
71043;BME280;58696;52.134;5.500;2023-02-25T06:31:22;101079.53;;;3.74;84.10
71043;BME280;58696;52.134;5.500;2023-02-25T06:33:52;101078.06;;;3.71;84.45
71043;BME280;58696;52.134;5.500;2023-02-25T06:36:23;101079.25;;;3.67;84.96
71043;BME280;58696;52.134;5.500;2023-02-25T06:38:52;101071.22;;;3.62;85.33
71043;BME280;58696;52.134;5.500;2023-02-25T06:41:21;101078.41;;;3.57;85.91
71043;BME280;58696;52.134;5.500;2023-02-25T06:43:48;101078.81;;;3.52;86.46
71043;BME280;58696;52.134;5.500;2023-02-25T06:46:24;101090.72;;;3.52;86.71
71043;BME280;58696;52.134;5.500;2023-02-25T06:48:52;101095.94;;;3.50;86.86
71043;BME280;58696;52.134;5.500;2023-02-25T06:51:20;101090.03;;;3.50;86.93
71043;BME280;58696;52.134;5.500;2023-02-25T06:53:51;101084.81;;;3.51;86.97
71043;BME280;58696;52.134;5.500;2023-02-25T06:56:20;101090.03;;;3.50;86.56
71043;BME280;58696;52.134;5.500;2023-02-25T06:58:48;101088.31;;;3.50;87.07
71043;BME280;58696;52.134;5.500;2023-02-25T07:01:20;101090.72;;;3.52;87.17
71043;BME280;58696;52.134;5.500;2023-02-25T07:03:50;101093.94;;;3.54;87.39
71043;BME280;58696;52.134;5.500;2023-02-25T07:06:19;101114.94;;;3.56;87.30
71043;BME280;58696;52.134;5.500;2023-02-25T07:08:49;101112.81;;;3.61;86.92
71043;BME280;58696;52.134;5.500;2023-02-25T07:13:48;101139.81;;;3.22;89.06
71043;BME280;58696;52.134;5.500;2023-02-25T07:16:20;101118.63;;;3.11;89.32
71043;BME280;58696;52.134;5.500;2023-02-25T07:18:47;101122.78;;;3.12;89.52
71043;BME280;58696;52.134;5.500;2023-02-25T07:21:14;101121.59;;;3.16;89.37
71043;BME280;58696;52.134;5.500;2023-02-25T07:23:44;101133.50;;;3.16;89.65
71043;BME280;58696;52.134;5.500;2023-02-25T07:26:16;101136.28;;;3.13;89.77
71043;BME280;58696;52.134;5.500;2023-02-25T07:28:43;101143.91;;;3.13;89.79
71043;BME280;58696;52.134;5.500;2023-02-25T07:31:16;101144.84;;;3.12;89.90
71043;BME280;58696;52.134;5.500;2023-02-25T07:33:46;101143.75;;;3.14;89.97
71043;BME280;58696;52.134;5.500;2023-02-25T07:36:13;101137.28;;;3.22;90.13
71043;BME280;58696;52.134;5.500;2023-02-25T07:38:43;101137.56;;;3.28;90.31
71043;BME280;58696;52.134;5.500;2023-02-25T07:41:16;101143.22;;;3.32;90.00
71043;BME280;58696;52.134;5.500;2023-02-25T07:43:43;101142.78;;;3.36;90.29
71043;BME280;58696;52.134;5.500;2023-02-25T07:46:12;101150.84;;;3.41;90.06
71043;BME280;58696;52.134;5.500;2023-02-25T07:48:39;101157.16;;;3.47;90.31
71043;BME280;58696;52.134;5.500;2023-02-25T07:51:12;101160.25;;;3.51;90.22
71043;BME280;58696;52.134;5.500;2023-02-25T07:53:40;101149.84;;;3.54;89.98
71043;BME280;58696;52.134;5.500;2023-02-25T07:56:10;101154.94;;;3.63;89.72
71043;BME280;58696;52.134;5.500;2023-02-25T07:58:38;101170.22;;;3.73;89.77
71043;BME280;58696;52.134;5.500;2023-02-25T08:01:07;101165.31;;;3.81;89.32
71043;BME280;58696;52.134;5.500;2023-02-25T08:03:36;101160.94;;;3.93;89.21
71043;BME280;58696;52.134;5.500;2023-02-25T08:06:04;101171.53;;;4.08;88.95
71043;BME280;58696;52.134;5.500;2023-02-25T08:08:41;101170.84;;;4.93;87.59
71043;BME280;58696;52.134;5.500;2023-02-25T08:11:11;101175.81;;;5.41;85.78
71043;BME280;58696;52.134;5.500;2023-02-25T08:13:44;101177.63;;;5.96;84.11
71043;BME280;58696;52.134;5.500;2023-02-25T08:16:13;101182.81;;;6.57;83.23
71043;BME280;58696;52.134;5.500;2023-02-25T08:18:43;101178.75;;;6.65;80.68
71043;BME280;58696;52.134;5.500;2023-02-25T08:21:16;101188.72;;;6.04;81.85
71043;BME280;58696;52.134;5.500;2023-02-25T08:23:47;101191.31;;;5.95;81.92
71043;BME280;58696;52.134;5.500;2023-02-25T08:26:14;101188.47;;;5.98;82.88
71043;BME280;58696;52.134;5.500;2023-02-25T08:28:43;101191.09;;;7.21;80.72
71043;BME280;58696;52.134;5.500;2023-02-25T08:31:10;101187.53;;;7.82;77.33
71043;BME280;58696;52.134;5.500;2023-02-25T08:33:45;101194.66;;;7.02;78.06
71043;BME280;58696;52.134;5.500;2023-02-25T08:36:19;101213.03;;;6.80;79.28
71043;BME280;58696;52.134;5.500;2023-02-25T08:38:50;101199.91;;;6.75;78.54
71043;BME280;58696;52.134;5.500;2023-02-25T08:41:18;101192.72;;;6.25;78.11
71043;BME280;58696;52.134;5.500;2023-02-25T08:43:53;101192.25;;;6.21;78.77
71043;BME280;58696;52.134;5.500;2023-02-25T08:46:24;101202.78;;;6.09;78.05
71043;BME280;58696;52.134;5.500;2023-02-25T08:48:51;101209.16;;;6.76;77.79
71043;BME280;58696;52.134;5.500;2023-02-25T08:51:19;101191.22;;;6.32;74.69
71043;BME280;58696;52.134;5.500;2023-02-25T08:53:47;101202.13;;;6.24;75.81
71043;BME280;58696;52.134;5.500;2023-02-25T08:56:14;101216.50;;;6.97;75.08
71043;BME280;58696;52.134;5.500;2023-02-25T08:58:42;101220.66;;;6.98;74.50
71043;BME280;58696;52.134;5.500;2023-02-25T09:01:14;101221.94;;;6.76;73.80
71043;BME280;58696;52.134;5.500;2023-02-25T09:03:47;101233.56;;;6.52;74.27
71043;BME280;58696;52.134;5.500;2023-02-25T09:06:21;101240.00;;;6.29;74.43
71043;BME280;58696;52.134;5.500;2023-02-25T09:08:51;101251.88;;;6.20;76.29
71043;BME280;58696;52.134;5.500;2023-02-25T09:11:20;101250.19;;;6.11;76.23
71043;BME280;58696;52.134;5.500;2023-02-25T09:13:48;101259.78;;;5.99;76.55
71043;BME280;58696;52.134;5.500;2023-02-25T09:16:17;101262.75;;;5.85;76.37
71043;BME280;58696;52.134;5.500;2023-02-25T09:18:46;101260.88;;;5.87;75.41
71043;BME280;58696;52.134;5.500;2023-02-25T09:21:13;101252.84;;;5.82;75.44
71043;BME280;58696;52.134;5.500;2023-02-25T09:23:41;101266.25;;;5.84;76.45
71043;BME280;58696;52.134;5.500;2023-02-25T09:26:10;101269.63;;;5.75;76.57
71043;BME280;58696;52.134;5.500;2023-02-25T09:28:38;101271.28;;;5.66;77.00
71043;BME280;58696;52.134;5.500;2023-02-25T09:31:08;101278.22;;;5.74;75.98
71043;BME280;58696;52.134;5.500;2023-02-25T09:33:36;101287.97;;;5.51;76.90
71043;BME280;58696;52.134;5.500;2023-02-25T09:36:07;101290.91;;;6.58;74.39
71043;BME280;58696;52.134;5.500;2023-02-25T09:38:41;101288.84;;;7.15;72.81
71043;BME280;58696;52.134;5.500;2023-02-25T09:46:37;101293.03;;;6.07;75.73
71043;BME280;58696;52.134;5.500;2023-02-25T09:50:20;101290.16;;;5.83;75.31
71043;BME280;58696;52.134;5.500;2023-02-25T09:52:15;101296.59;;;5.87;76.28
71043;BME280;58696;52.134;5.500;2023-02-25T09:54:53;101297.81;;;5.93;75.84
71043;BME280;58696;52.134;5.500;2023-02-25T09:57:24;101309.19;;;5.89;75.51
71043;BME280;58696;52.134;5.500;2023-02-25T09:59:53;101306.91;;;5.86;75.81
71043;BME280;58696;52.134;5.500;2023-02-25T10:02:36;101301.69;;;5.87;75.06
71043;BME280;58696;52.134;5.500;2023-02-25T10:10:37;101307.19;;;5.92;74.31
71043;BME280;58696;52.134;5.500;2023-02-25T10:19:47;101325.28;;;6.81;72.51
71043;BME280;58696;52.134;5.500;2023-02-25T10:24:46;101334.44;;;7.28;68.29
71043;BME280;58696;52.134;5.500;2023-02-25T10:27:27;101341.19;;;7.11;68.79
71043;BME280;58696;52.134;5.500;2023-02-25T10:30:03;101336.09;;;6.93;67.19
71043;BME280;58696;52.134;5.500;2023-02-25T10:32:34;101328.25;;;6.59;66.33
71043;BME280;58696;52.134;5.500;2023-02-25T10:35:13;101343.44;;;6.33;68.28
71043;BME280;58696;52.134;5.500;2023-02-25T10:37:42;101336.53;;;6.16;68.77
71043;BME280;58696;52.134;5.500;2023-02-25T10:40:17;101334.41;;;6.01;67.96
71043;BME280;58696;52.134;5.500;2023-02-25T10:42:50;101342.50;;;5.87;69.61
71043;BME280;58696;52.134;5.500;2023-02-25T10:45:28;101347.63;;;5.77;68.38
71043;BME280;58696;52.134;5.500;2023-02-25T10:50:40;101349.78;;;5.63;70.27
71043;BME280;58696;52.134;5.500;2023-02-25T10:55:50;101359.44;;;5.69;69.38
71043;BME280;58696;52.134;5.500;2023-02-25T11:03:34;101358.50;;;7.35;63.42
71043;BME280;58696;52.134;5.500;2023-02-25T11:06:28;101356.22;;;6.78;64.93
71043;BME280;58696;52.134;5.500;2023-02-25T11:08:59;101384.75;;;6.46;70.04
71043;BME280;58696;52.134;5.500;2023-02-25T11:11:30;101413.00;;;5.30;74.21
71043;BME280;58696;52.134;5.500;2023-02-25T11:14:24;101436.28;;;4.05;77.80
71043;BME280;58696;52.134;5.500;2023-02-25T11:19:42;101411.75;;;3.30;82.34
71043;BME280;58696;52.134;5.500;2023-02-25T11:24:44;101418.97;;;3.46;81.52
71043;BME280;58696;52.134;5.500;2023-02-25T11:27:40;101406.69;;;3.83;82.00
71043;BME280;58696;52.134;5.500;2023-02-25T11:32:50;101410.72;;;4.67;81.50
71043;BME280;58696;52.134;5.500;2023-02-25T11:37:58;101415.13;;;5.25;77.98
71043;BME280;58696;52.134;5.500;2023-02-25T11:40:42;101413.94;;;5.58;77.98
71043;BME280;58696;52.134;5.500;2023-02-25T11:45:57;101418.59;;;6.11;77.15
71043;BME280;58696;52.134;5.500;2023-02-25T11:48:38;101415.44;;;6.37;75.37
71043;BME280;58696;52.134;5.500;2023-02-25T11:57:13;101409.47;;;6.73;62.71
71043;BME280;58696;52.134;5.500;2023-02-25T12:08:33;101402.53;;;6.66;59.13
71043;BME280;58696;52.134;5.500;2023-02-25T12:37:45;101402.03;;;7.07;53.33
71043;BME280;58696;52.134;5.500;2023-02-25T12:40:22;101414.22;;;7.49;54.14
71043;BME280;58696;52.134;5.500;2023-02-25T12:45:56;101413.59;;;6.84;52.34
71043;BME280;58696;52.134;5.500;2023-02-25T12:58:02;101427.06;;;7.22;51.70
71043;BME280;58696;52.134;5.500;2023-02-25T13:06:02;101435.31;;;6.70;54.02
71043;BME280;58696;52.134;5.500;2023-02-25T13:14:31;101452.47;;;6.50;56.06
71043;BME280;58696;52.134;5.500;2023-02-25T13:37:45;101460.59;;;6.26;55.79
71043;BME280;58696;52.134;5.500;2023-02-25T13:42:59;101467.41;;;6.73;57.36
71043;BME280;58696;52.134;5.500;2023-02-25T13:48:40;101485.38;;;6.91;55.61
71043;BME280;58696;52.134;5.500;2023-02-25T13:56:55;101484.31;;;6.83;51.85
71043;BME280;58696;52.134;5.500;2023-02-25T14:05:33;101485.53;;;6.79;52.07
71043;BME280;58696;52.134;5.500;2023-02-25T14:08:36;101485.91;;;6.84;51.78
71043;BME280;58696;52.134;5.500;2023-02-25T14:22:25;101505.03;;;6.43;51.03
71043;BME280;58696;52.134;5.500;2023-02-25T14:47:20;101553.03;;;6.11;51.16
71043;BME280;58696;52.134;5.500;2023-02-25T14:49:54;101556.00;;;6.16;50.08
71043;BME280;58696;52.134;5.500;2023-02-25T14:55:56;101563.22;;;6.30;50.51
71043;BME280;58696;52.134;5.500;2023-02-25T15:19:04;101597.97;;;5.83;48.05
71043;BME280;58696;52.134;5.500;2023-02-25T15:21:39;101591.75;;;5.75;46.95
71043;BME280;58696;52.134;5.500;2023-02-25T15:24:34;101598.19;;;5.70;47.81
71043;BME280;58696;52.134;5.500;2023-02-25T15:26:58;101603.69;;;5.65;48.88
71043;BME280;58696;52.134;5.500;2023-02-25T15:34:59;101617.09;;;5.58;49.37
71043;BME280;58696;52.134;5.500;2023-02-25T15:42:53;101631.97;;;5.52;47.24
71043;BME280;58696;52.134;5.500;2023-02-25T15:53:10;101644.69;;;4.91;49.38
71043;BME280;58696;52.134;5.500;2023-02-25T16:06:07;101658.53;;;4.98;52.45
71043;BME280;58696;52.134;5.500;2023-02-25T16:11:32;101662.16;;;4.96;54.53
71043;BME280;58696;52.134;5.500;2023-02-25T16:16:49;101675.50;;;4.88;54.62
71043;BME280;58696;52.134;5.500;2023-02-25T16:19:19;101676.00;;;4.82;53.28
71043;BME280;58696;52.134;5.500;2023-02-25T16:21:51;101678.25;;;4.75;54.16
71043;BME280;58696;52.134;5.500;2023-02-25T16:24:24;101672.94;;;4.67;53.51
71043;BME280;58696;52.134;5.500;2023-02-25T16:38:21;101697.69;;;4.44;55.02
71043;BME280;58696;52.134;5.500;2023-02-25T16:40:59;101704.06;;;4.39;55.48
71043;BME280;58696;52.134;5.500;2023-02-25T16:43:31;101705.34;;;4.33;54.47
71043;BME280;58696;52.134;5.500;2023-02-25T16:46:08;101711.25;;;4.34;53.96
71043;BME280;58696;52.134;5.500;2023-02-25T16:51:23;101719.69;;;4.23;54.83
71043;BME280;58696;52.134;5.500;2023-02-25T16:54:18;101724.59;;;4.15;55.37
71043;BME280;58696;52.134;5.500;2023-02-25T16:56:44;101724.94;;;4.10;55.52
71043;BME280;58696;52.134;5.500;2023-02-25T17:01:46;101738.69;;;3.96;56.16
71043;BME280;58696;52.134;5.500;2023-02-25T17:04:19;101736.75;;;3.89;56.51
71043;BME280;58696;52.134;5.500;2023-02-25T17:09:50;101749.91;;;3.72;57.57
71043;BME280;58696;52.134;5.500;2023-02-25T17:12:40;101753.25;;;3.61;58.32
71043;BME280;58696;52.134;5.500;2023-02-25T17:15:19;101757.19;;;3.54;58.51
71043;BME280;58696;52.134;5.500;2023-02-25T17:17:50;101760.28;;;3.46;58.94
71043;BME280;58696;52.134;5.500;2023-02-25T17:20:22;101756.69;;;3.37;59.44
71043;BME280;58696;52.134;5.500;2023-02-25T17:22:50;101758.03;;;3.30;59.36
71043;BME280;58696;52.134;5.500;2023-02-25T17:25:27;101763.44;;;3.26;59.88
71043;BME280;58696;52.134;5.500;2023-02-25T17:27:59;101772.22;;;3.22;60.22
71043;BME280;58696;52.134;5.500;2023-02-25T17:33:00;101779.81;;;3.10;60.15
71043;BME280;58696;52.134;5.500;2023-02-25T17:35:33;101773.22;;;3.08;60.16
71043;BME280;58696;52.134;5.500;2023-02-25T17:38:02;101780.22;;;3.04;60.42
71043;BME280;58696;52.134;5.500;2023-02-25T17:40:31;101781.59;;;2.97;60.58
71043;BME280;58696;52.134;5.500;2023-02-25T17:43:18;101782.63;;;2.95;60.46
71043;BME280;58696;52.134;5.500;2023-02-25T17:45:52;101778.00;;;2.88;61.06
71043;BME280;58696;52.134;5.500;2023-02-25T17:48:27;101783.16;;;2.87;60.88
71043;BME280;58696;52.134;5.500;2023-02-25T17:51:04;101785.81;;;2.85;61.13
71043;BME280;58696;52.134;5.500;2023-02-25T17:53:46;101789.28;;;2.84;61.01
71043;BME280;58696;52.134;5.500;2023-02-25T17:58:50;101793.50;;;2.73;61.31
71043;BME280;58696;52.134;5.500;2023-02-25T18:01:21;101801.63;;;2.65;61.83
71043;BME280;58696;52.134;5.500;2023-02-25T18:03:49;101809.22;;;2.65;62.04
71043;BME280;58696;52.134;5.500;2023-02-25T18:08:57;101815.03;;;2.54;62.51
71043;BME280;58696;52.134;5.500;2023-02-25T18:13:54;101821.28;;;2.50;63.03
71043;BME280;58696;52.134;5.500;2023-02-25T18:16:51;101822.50;;;2.45;63.10
71043;BME280;58696;52.134;5.500;2023-02-25T18:19:30;101826.47;;;2.36;63.94